createdAt,value
2023-04-06T00:01:47.899Z,12.96
2023-04-06T00:04:15.712Z,12.94
2023-04-06T00:06:43.984Z,12.89
2023-04-06T00:09:12.345Z,12.86
2023-04-06T00:11:40.004Z,12.84
2023-04-06T00:14:07.678Z,12.81
2023-04-06T00:16:35.820Z,12.78
2023-04-06T00:19:03.296Z,12.74
2023-04-06T00:21:31.772Z,12.66
2023-04-06T00:23:59.130Z,12.62
2023-04-06T00:26:26.483Z,12.63
2023-04-06T00:28:55.272Z,12.63
2023-04-06T00:31:22.524Z,12.65
2023-04-06T00:33:50.088Z,12.69
2023-04-06T00:36:17.548Z,12.70
2023-04-06T00:38:45.203Z,12.68
2023-04-06T00:41:12.393Z,12.62
2023-04-06T00:43:41.348Z,12.59
2023-04-06T00:46:08.945Z,12.55
2023-04-06T00:48:36.688Z,12.52
2023-04-06T00:51:04.231Z,12.50
2023-04-06T00:53:31.989Z,12.50
2023-04-06T00:56:00.777Z,12.49
2023-04-06T00:58:28.749Z,12.47
2023-04-06T01:01:02.547Z,12.37
2023-04-06T01:03:30.725Z,12.24
2023-04-06T01:05:58.707Z,12.08
2023-04-06T01:08:30.758Z,11.97
2023-04-06T01:11:10.405Z,11.94
2023-04-06T01:13:37.872Z,11.93
2023-04-06T01:16:08.636Z,11.92
2023-04-06T01:18:45.886Z,11.90
2023-04-06T01:21:26.392Z,11.92
2023-04-06T01:24:20.565Z,11.96
2023-04-06T01:27:02.992Z,11.95
2023-04-06T01:29:50.261Z,11.94
2023-04-06T01:32:26.351Z,11.96
2023-04-06T01:34:55.408Z,11.98
2023-04-06T01:37:23.004Z,11.97
2023-04-06T01:39:51.244Z,11.98
2023-04-06T01:42:26.688Z,12.00
2023-04-06T01:44:54.661Z,12.04
2023-04-06T01:47:22.176Z,12.07
2023-04-06T01:49:49.979Z,12.07
2023-04-06T01:52:18.456Z,12.06
2023-04-06T01:54:52.984Z,12.06
2023-04-06T01:57:43.481Z,12.05
2023-04-06T02:00:18.415Z,12.04
2023-04-06T02:02:50.911Z,12.04
2023-04-06T02:05:22.030Z,12.06
2023-04-06T02:07:54.396Z,12.07
2023-04-06T02:10:29.530Z,12.07
2023-04-06T02:12:58.010Z,12.09
2023-04-06T02:15:27.003Z,12.09
2023-04-06T02:17:56.121Z,12.07
2023-04-06T02:20:23.758Z,12.01
2023-04-06T02:22:54.022Z,11.99
2023-04-06T02:25:22.174Z,12.00
2023-04-06T02:27:49.621Z,12.02
2023-04-06T02:30:19.055Z,12.04
2023-04-06T02:32:47.048Z,12.03
2023-04-06T02:35:14.449Z,12.02
2023-04-06T02:37:42.715Z,12.00
2023-04-06T02:40:10.892Z,11.97
2023-04-06T02:42:40.087Z,11.92
2023-04-06T02:45:07.821Z,11.88
2023-04-06T02:47:39.046Z,11.90
2023-04-06T02:50:06.858Z,11.93
2023-04-06T02:52:35.750Z,11.95
2023-04-06T02:55:03.923Z,11.93
2023-04-06T02:57:32.212Z,11.86
2023-04-06T02:59:59.703Z,11.83
2023-04-06T03:02:34.543Z,11.78
2023-04-06T03:05:07.675Z,11.75
2023-04-06T03:07:38.308Z,11.73
2023-04-06T03:10:06.886Z,11.72
2023-04-06T03:12:34.488Z,11.76
2023-04-06T03:15:23.766Z,11.72
2023-04-06T03:17:57.127Z,11.72
2023-04-06T03:20:37.058Z,11.70
2023-04-06T03:23:06.560Z,11.70
2023-04-06T03:25:36.790Z,11.69
2023-04-06T03:28:06.193Z,11.70
2023-04-06T03:30:39.277Z,11.72
2023-04-06T03:33:07.751Z,11.72
2023-04-06T03:35:39.324Z,11.74
2023-04-06T03:38:07.282Z,11.74
2023-04-06T03:40:36.095Z,11.72
2023-04-06T03:43:04.848Z,11.69
2023-04-06T03:45:36.095Z,11.66
2023-04-06T03:48:04.243Z,11.65
2023-04-06T03:50:32.876Z,11.64
2023-04-06T03:53:03.685Z,11.58
2023-04-06T03:55:37.187Z,11.56
2023-04-06T03:58:05.593Z,11.53
2023-04-06T04:00:36.396Z,11.47
2023-04-06T04:03:05.038Z,11.41
2023-04-06T04:05:32.844Z,11.42
2023-04-06T04:08:00.920Z,11.43
2023-04-06T04:10:28.591Z,11.46
2023-04-06T04:12:56.444Z,11.49
2023-04-06T04:15:25.440Z,11.50
2023-04-06T04:17:56.304Z,11.50
2023-04-06T04:20:24.071Z,11.48
2023-04-06T04:22:52.352Z,11.49
2023-04-06T04:25:20.021Z,11.52
2023-04-06T04:27:50.710Z,11.56
2023-04-06T04:30:18.786Z,11.56
2023-04-06T04:32:46.976Z,11.51
2023-04-06T04:35:16.258Z,11.45
2023-04-06T04:37:44.841Z,11.44
2023-04-06T04:40:12.710Z,11.42
2023-04-06T04:42:51.638Z,11.39
2023-04-06T04:45:25.239Z,11.36
2023-04-06T04:47:53.615Z,11.35
2023-04-06T04:50:21.275Z,11.34
2023-04-06T04:52:51.201Z,11.29
2023-04-06T04:55:21.970Z,11.25
2023-04-06T04:57:52.046Z,11.28
2023-04-06T05:00:21.496Z,11.33
2023-04-06T05:02:50.440Z,11.34
2023-04-06T05:05:25.685Z,11.36
2023-04-06T05:07:53.453Z,11.38
2023-04-06T05:10:33.022Z,11.41
2023-04-06T05:13:01.782Z,11.45
2023-04-06T05:15:29.920Z,11.48
2023-04-06T05:18:05.422Z,11.45
2023-04-06T05:20:35.204Z,11.45
2023-04-06T05:23:02.665Z,11.49
2023-04-06T05:25:31.034Z,11.50
2023-04-06T05:28:01.984Z,11.49
2023-04-06T05:30:41.106Z,11.42
2023-04-06T05:33:10.870Z,11.32
2023-04-06T05:36:01.327Z,11.29
2023-04-06T05:38:29.175Z,11.31
2023-04-06T05:40:57.755Z,11.29
2023-04-06T05:43:26.955Z,11.25
2023-04-06T05:45:55.946Z,11.22
2023-04-06T05:48:23.191Z,11.23
2023-04-06T05:50:53.937Z,11.27
2023-04-06T05:53:27.016Z,11.28
2023-04-06T05:55:57.036Z,11.27
2023-04-06T05:58:25.001Z,11.28
2023-04-06T06:00:57.474Z,11.28
2023-04-06T06:03:27.696Z,11.21
2023-04-06T06:06:01.293Z,11.14
2023-04-06T06:08:31.209Z,11.06
2023-04-06T06:11:02.567Z,11.01
2023-04-06T06:13:30.935Z,11.04
2023-04-06T06:15:58.522Z,11.11
2023-04-06T06:18:26.766Z,11.20
2023-04-06T06:20:55.247Z,11.27
2023-04-06T06:23:22.803Z,11.36
2023-04-06T06:25:50.669Z,11.41
2023-04-06T06:28:19.562Z,11.46
2023-04-06T06:30:57.310Z,11.50
2023-04-06T06:33:26.977Z,11.61
2023-04-06T06:35:55.386Z,11.67
2023-04-06T06:38:24.088Z,11.72
2023-04-06T06:40:56.321Z,11.77
2023-04-06T06:43:26.527Z,11.80
2023-04-06T06:45:59.384Z,11.91
2023-04-06T06:48:26.784Z,12.03
2023-04-06T06:50:55.150Z,12.09
2023-04-06T06:53:23.554Z,12.14
2023-04-06T06:55:50.673Z,12.20
2023-04-06T06:58:18.589Z,12.27
2023-04-06T07:00:46.257Z,12.35
2023-04-06T07:03:14.389Z,12.46
2023-04-06T07:05:53.317Z,12.55
2023-04-06T07:08:21.574Z,12.63
2023-04-06T07:10:50.982Z,12.72
2023-04-06T07:13:27.356Z,12.82
2023-04-06T07:15:58.975Z,12.95
2023-04-06T07:18:26.758Z,13.06
2023-04-06T07:20:54.322Z,13.16
2023-04-06T07:23:21.998Z,13.20
2023-04-06T07:25:51.450Z,13.20
2023-04-06T07:28:20.171Z,13.22
2023-04-06T07:30:48.098Z,13.22
2023-04-06T07:33:19.839Z,13.29
2023-04-06T07:35:47.602Z,13.38
2023-04-06T07:38:15.321Z,13.40
2023-04-06T07:40:42.909Z,13.43
2023-04-06T07:43:11.888Z,13.39
2023-04-06T07:45:40.223Z,13.34
2023-04-06T07:48:08.106Z,13.26
2023-04-06T07:50:38.033Z,13.15
2023-04-06T07:53:06.104Z,13.10
2023-04-06T07:55:35.096Z,13.11
2023-04-06T07:58:02.368Z,13.12
2023-04-06T08:00:31.752Z,13.08
2023-04-06T08:03:05.876Z,13.02
2023-04-06T08:05:33.422Z,12.95
2023-04-06T08:08:07.092Z,12.89
2023-04-06T08:10:35.317Z,12.86
2023-04-06T08:13:02.861Z,12.88
2023-04-06T08:15:32.290Z,12.90
2023-04-06T08:17:59.903Z,12.88
2023-04-06T08:20:27.786Z,12.83
2023-04-06T08:22:55.962Z,12.77
2023-04-06T08:25:23.522Z,12.69
2023-04-06T08:27:51.085Z,12.63
2023-04-06T08:30:19.874Z,12.61
2023-04-06T08:33:07.107Z,12.59
2023-04-06T08:35:34.654Z,12.50
2023-04-06T08:38:02.233Z,12.46
2023-04-06T08:40:30.066Z,12.41
2023-04-06T08:42:57.727Z,12.35
2023-04-06T08:45:25.701Z,12.37
2023-04-06T08:47:53.443Z,12.47
2023-04-06T08:50:21.057Z,12.52
2023-04-06T08:52:48.819Z,12.50
2023-04-06T08:55:16.566Z,12.46
2023-04-06T08:57:44.310Z,12.43
2023-04-06T09:00:12.603Z,12.39
2023-04-06T09:02:43.637Z,12.35
2023-04-06T09:05:11.651Z,12.28
2023-04-06T09:07:39.051Z,12.21
2023-04-06T09:10:07.884Z,12.17
2023-04-06T09:12:35.811Z,12.12
2023-04-06T09:15:03.472Z,12.01
2023-04-06T09:17:33.236Z,11.80
2023-04-06T09:20:01.052Z,11.60
2023-04-06T09:22:35.935Z,11.45
2023-04-06T09:25:03.580Z,11.33
2023-04-06T09:27:31.457Z,11.24
2023-04-06T09:30:06.754Z,11.12
2023-04-06T09:32:53.412Z,11.00
2023-04-06T09:35:21.295Z,10.97
2023-04-06T09:37:52.376Z,11.00
2023-04-06T09:40:20.492Z,10.98
2023-04-06T09:42:48.302Z,10.88
2023-04-06T09:45:15.862Z,10.80
2023-04-06T09:47:44.120Z,10.78
2023-04-06T09:50:13.395Z,10.82
2023-04-06T09:52:43.609Z,10.88
2023-04-06T09:55:11.146Z,10.97
2023-04-06T09:57:45.536Z,11.02
2023-04-06T10:00:15.112Z,11.04
2023-04-06T10:03:07.765Z,11.00
2023-04-06T10:05:44.391Z,10.99
2023-04-06T10:08:12.319Z,11.01
2023-04-06T10:10:39.818Z,10.98
2023-04-06T10:13:08.801Z,10.98
2023-04-06T10:15:36.235Z,11.04
2023-04-06T10:18:03.957Z,11.05
2023-04-06T10:20:31.452Z,11.09
2023-04-06T10:23:08.329Z,11.07
2023-04-06T10:25:35.789Z,11.00
2023-04-06T10:28:07.541Z,10.94
2023-04-06T10:30:35.815Z,10.95
2023-04-06T10:33:17.815Z,10.99
2023-04-06T10:35:45.526Z,10.96
2023-04-06T10:38:14.824Z,10.90
2023-04-06T10:40:43.582Z,10.87
2023-04-06T10:43:13.267Z,10.91
2023-04-06T10:45:40.991Z,10.91
2023-04-06T10:48:18.497Z,10.90
2023-04-06T10:50:47.998Z,10.93
2023-04-06T10:53:22.457Z,10.97
2023-04-06T10:55:50.628Z,11.01
2023-04-06T10:58:19.120Z,11.01
2023-04-06T11:00:51.219Z,11.03
2023-04-06T11:03:19.494Z,11.04
2023-04-06T11:05:48.456Z,11.03
2023-04-06T11:08:26.241Z,11.07
2023-04-06T11:11:04.552Z,11.11
2023-04-06T11:13:52.183Z,11.09
2023-04-06T11:16:20.595Z,11.07
2023-04-06T11:18:49.858Z,11.07
2023-04-06T11:21:40.223Z,11.08
2023-04-06T11:24:12.367Z,11.04
2023-04-06T11:26:39.628Z,10.93
2023-04-06T11:29:07.737Z,10.85
2023-04-06T11:31:39.744Z,10.77
2023-04-06T11:34:11.460Z,10.67
2023-04-06T11:36:42.516Z,10.59
2023-04-06T11:39:10.062Z,10.52
2023-04-06T11:41:39.256Z,10.49
2023-04-06T11:44:06.713Z,10.46
2023-04-06T11:46:34.333Z,10.46
2023-04-06T11:49:02.699Z,10.44
2023-04-06T11:51:29.907Z,10.40
2023-04-06T11:53:57.476Z,10.44
2023-04-06T11:56:28.811Z,10.50
2023-04-06T11:58:57.721Z,10.52
2023-04-06T12:01:25.166Z,10.57
2023-04-06T12:03:59.971Z,10.59
2023-04-06T12:06:29.693Z,10.59
2023-04-06T12:08:57.145Z,10.62
2023-04-06T12:11:25.015Z,10.63
2023-04-06T12:13:54.005Z,10.69
2023-04-06T12:16:21.810Z,10.76
2023-04-06T12:18:49.225Z,10.77
2023-04-06T12:21:18.220Z,10.80
2023-04-06T12:23:45.826Z,10.80
2023-04-06T12:26:13.227Z,10.79
2023-04-06T12:28:45.401Z,10.78
2023-04-06T12:31:15.956Z,10.78
2023-04-06T12:33:45.489Z,10.85
2023-04-06T12:36:13.914Z,10.91
2023-04-06T12:38:41.935Z,10.91
2023-04-06T12:41:09.348Z,10.97
2023-04-06T12:43:36.694Z,10.96
2023-04-06T12:46:05.894Z,10.90
2023-04-06T12:48:33.454Z,10.81
2023-04-06T12:51:04.098Z,10.75
2023-04-06T12:53:33.215Z,10.72
2023-04-06T12:56:01.151Z,10.70
2023-04-06T12:58:30.169Z,10.71
2023-04-06T13:00:58.257Z,10.76
2023-04-06T13:03:26.424Z,10.79
2023-04-06T13:05:54.062Z,10.72
2023-04-06T13:08:22.224Z,10.65
2023-04-06T13:10:51.135Z,10.60
2023-04-06T13:13:29.014Z,10.54
2023-04-06T13:16:01.933Z,10.48
2023-04-06T13:18:31.946Z,10.44
2023-04-06T13:21:00.192Z,10.47
2023-04-06T13:23:27.534Z,10.53
2023-04-06T13:25:59.307Z,10.54
2023-04-06T13:28:26.861Z,10.53
2023-04-06T13:30:55.041Z,10.53
2023-04-06T13:33:24.441Z,10.54
2023-04-06T13:35:51.595Z,10.55
2023-04-06T13:38:19.971Z,10.55
2023-04-06T13:40:50.219Z,10.51
2023-04-06T13:43:20.209Z,10.49
2023-04-06T13:45:55.387Z,10.42
2023-04-06T13:48:23.517Z,10.31
2023-04-06T13:50:50.868Z,10.22
2023-04-06T13:53:20.251Z,10.16
2023-04-06T13:55:56.807Z,10.16
2023-04-06T13:58:25.323Z,10.22
2023-04-06T14:00:53.309Z,10.22
2023-04-06T14:03:22.872Z,10.21
2023-04-06T14:05:51.268Z,10.20
2023-04-06T14:08:19.268Z,10.20
2023-04-06T14:10:46.593Z,10.24
2023-04-06T14:13:14.157Z,10.28
2023-04-06T14:15:41.919Z,10.27
2023-04-06T14:18:09.396Z,10.21
2023-04-06T14:20:36.927Z,10.20
2023-04-06T14:23:05.720Z,10.15
2023-04-06T14:25:34.974Z,10.11
2023-04-06T14:28:02.549Z,10.05
2023-04-06T14:30:33.227Z,10.01
2023-04-06T14:33:01.803Z,9.98
2023-04-06T14:35:31.223Z,9.94
2023-04-06T14:37:58.755Z,9.94
2023-04-06T14:40:26.127Z,9.90
2023-04-06T14:42:53.656Z,9.83
2023-04-06T14:45:22.441Z,9.74
2023-04-06T14:47:51.208Z,9.66
2023-04-06T14:50:18.802Z,9.59
2023-04-06T14:52:47.495Z,9.56
2023-04-06T14:55:16.278Z,9.55
2023-04-06T14:57:43.532Z,9.51
2023-04-06T15:00:11.780Z,9.43
2023-04-06T15:02:58.725Z,9.38
2023-04-06T15:05:26.219Z,9.38
2023-04-06T15:07:53.833Z,9.40
2023-04-06T15:10:21.179Z,9.39
2023-04-06T15:12:52.836Z,9.39
2023-04-06T15:15:20.190Z,9.42
2023-04-06T15:17:47.707Z,9.40
2023-04-06T15:20:20.122Z,9.32
2023-04-06T15:22:47.684Z,9.18
2023-04-06T15:25:15.034Z,9.07
2023-04-06T15:27:43.723Z,9.00
2023-04-06T15:30:11.181Z,8.99
2023-04-06T15:32:39.072Z,9.00
2023-04-06T15:35:10.188Z,8.97
2023-04-06T15:37:38.461Z,8.92
2023-04-06T15:40:10.061Z,8.90
2023-04-06T15:42:37.798Z,8.91
2023-04-06T15:45:05.769Z,8.87
2023-04-06T15:47:33.967Z,8.80
2023-04-06T15:50:01.276Z,8.77
2023-04-06T15:52:28.761Z,8.78
2023-04-06T15:54:55.875Z,8.78
2023-04-06T15:57:23.302Z,8.75
2023-04-06T15:59:51.715Z,8.70
2023-04-06T16:02:20.149Z,8.66
2023-04-06T16:04:47.655Z,8.65
2023-04-06T16:07:15.417Z,8.65
2023-04-06T16:09:43.692Z,8.68
2023-04-06T16:12:11.355Z,8.74
2023-04-06T16:14:41.985Z,8.74
2023-04-06T16:17:09.441Z,8.70
2023-04-06T16:19:36.592Z,8.65
2023-04-06T16:22:05.457Z,8.63
2023-04-06T16:24:33.150Z,8.63
2023-04-06T16:27:00.808Z,8.62
2023-04-06T16:29:28.156Z,8.65
2023-04-06T16:31:55.881Z,8.67
2023-04-06T16:34:23.275Z,8.67
2023-04-06T16:36:51.376Z,8.63
2023-04-06T16:39:19.216Z,8.64
2023-04-06T16:41:47.102Z,8.64
2023-04-06T16:44:14.579Z,8.62
2023-04-06T16:46:46.604Z,8.57
2023-04-06T16:49:14.161Z,8.55
2023-04-06T16:51:45.109Z,8.52
2023-04-06T16:54:13.274Z,8.45
2023-04-06T16:56:40.978Z,8.38
2023-04-06T16:59:08.529Z,8.39
2023-04-06T17:01:36.477Z,8.42
2023-04-06T17:04:04.658Z,8.43
2023-04-06T17:06:32.428Z,8.40
2023-04-06T17:09:00.260Z,8.35
2023-04-06T17:11:36.080Z,8.26
2023-04-06T17:14:12.994Z,8.23
2023-04-06T17:16:40.498Z,8.21
2023-04-06T17:19:08.320Z,8.22
2023-04-06T17:21:36.388Z,8.26
2023-04-06T17:24:04.665Z,8.29
2023-04-06T17:26:34.169Z,8.28
2023-04-06T17:29:01.352Z,8.23
2023-04-06T17:31:30.618Z,8.09
2023-04-06T17:33:59.411Z,7.94
2023-04-06T17:36:28.098Z,7.88
2023-04-06T17:38:59.343Z,7.82
2023-04-06T17:41:28.122Z,7.75
2023-04-06T17:43:55.967Z,7.67
2023-04-06T17:46:23.591Z,7.58
2023-04-06T17:48:52.954Z,7.53
2023-04-06T17:51:21.021Z,7.49
2023-04-06T17:53:48.376Z,7.45
2023-04-06T17:56:16.461Z,7.42
2023-04-06T17:58:45.344Z,7.39
2023-04-06T18:01:20.000Z,7.36
2023-04-06T18:03:48.314Z,7.34
2023-04-06T18:06:15.640Z,7.32
2023-04-06T18:08:43.351Z,7.30
2023-04-06T18:11:15.833Z,7.26
2023-04-06T18:13:43.694Z,7.26
2023-04-06T18:16:16.937Z,7.29
2023-04-06T18:18:44.177Z,7.35
2023-04-06T18:21:11.724Z,7.42
2023-04-06T18:23:39.973Z,7.47
2023-04-06T18:26:11.112Z,7.46
2023-04-06T18:28:38.366Z,7.40
2023-04-06T18:31:06.034Z,7.37
2023-04-06T18:33:33.527Z,7.34
2023-04-06T18:36:00.857Z,7.27
2023-04-06T18:38:28.403Z,7.24
2023-04-06T18:40:56.165Z,7.19
2023-04-06T18:43:24.663Z,7.15
2023-04-06T18:45:52.058Z,7.12
2023-04-06T18:48:21.397Z,7.10
2023-04-06T18:50:59.545Z,7.10
2023-04-06T18:53:28.307Z,7.09
2023-04-06T18:55:56.059Z,7.06
2023-04-06T18:58:25.368Z,7.02
2023-04-06T19:00:53.509Z,7.01
2023-04-06T19:03:22.102Z,7.00
2023-04-06T19:05:50.303Z,7.00
2023-04-06T19:08:17.849Z,7.00
2023-04-06T19:10:49.366Z,7.01
2023-04-06T19:13:16.755Z,7.02
2023-04-06T19:15:44.147Z,7.03
2023-04-06T19:18:12.132Z,7.05
2023-04-06T19:20:39.636Z,7.06
2023-04-06T19:23:07.306Z,7.04
2023-04-06T19:25:35.576Z,7.01
2023-04-06T19:28:03.536Z,6.99
2023-04-06T19:30:31.882Z,6.99
2023-04-06T19:33:02.549Z,6.99
2023-04-06T19:35:30.528Z,7.00
2023-04-06T19:37:58.279Z,7.02
2023-04-06T19:40:26.148Z,7.03
2023-04-06T19:42:54.218Z,7.04
2023-04-06T19:45:22.085Z,7.06
2023-04-06T19:47:49.658Z,7.10
2023-04-06T19:50:17.016Z,7.13
2023-04-06T19:52:44.451Z,7.17
2023-04-06T19:55:12.169Z,7.18
2023-04-06T19:57:39.567Z,7.18
2023-04-06T20:00:07.846Z,7.20
2023-04-06T20:02:37.210Z,7.20
2023-04-06T20:05:05.008Z,7.20
2023-04-06T20:07:32.704Z,7.19
2023-04-06T20:10:02.728Z,7.21
2023-04-06T20:12:30.454Z,7.23
2023-04-06T20:14:57.812Z,7.25
2023-04-06T20:17:25.384Z,7.29
2023-04-06T20:19:53.779Z,7.31
2023-04-06T20:22:21.309Z,7.29
2023-04-06T20:24:50.507Z,7.29
2023-04-06T20:27:18.569Z,7.30
2023-04-06T20:29:45.936Z,7.32
2023-04-06T20:32:20.220Z,7.40
2023-04-06T20:34:48.230Z,7.46
2023-04-06T20:37:16.181Z,7.50
2023-04-06T20:39:43.747Z,7.51
2023-04-06T20:42:12.140Z,7.51
2023-04-06T20:44:41.214Z,7.51
2023-04-06T20:47:08.672Z,7.48
2023-04-06T20:49:36.417Z,7.43
2023-04-06T20:52:04.042Z,7.36
2023-04-06T20:54:31.451Z,7.33
2023-04-06T20:57:00.141Z,7.29
2023-04-06T20:59:27.813Z,7.29
2023-04-06T21:01:55.430Z,7.29
2023-04-06T21:04:23.305Z,7.23
2023-04-06T21:06:51.194Z,7.22
2023-04-06T21:09:19.796Z,7.27
2023-04-06T21:11:48.873Z,7.33
2023-04-06T21:14:18.410Z,7.37
2023-04-06T21:16:52.290Z,7.51
2023-04-06T21:19:20.153Z,7.59
2023-04-06T21:21:47.508Z,7.56
2023-04-06T21:24:16.686Z,7.55
2023-04-06T21:26:44.314Z,7.57
2023-04-06T21:29:11.614Z,7.55
2023-04-06T21:31:41.402Z,7.50
2023-04-06T21:34:09.788Z,7.50
2023-04-06T21:36:37.791Z,7.52
2023-04-06T21:39:05.846Z,7.48
2023-04-06T21:41:33.199Z,7.46
2023-04-06T21:44:00.473Z,7.42
2023-04-06T21:46:27.998Z,7.39
2023-04-06T21:48:55.561Z,7.37
2023-04-06T21:51:23.046Z,7.29
2023-04-06T21:53:51.610Z,7.18
2023-04-06T21:56:20.489Z,7.11
2023-04-06T21:58:50.201Z,7.06
2023-04-06T22:01:18.004Z,7.05
2023-04-06T22:03:45.854Z,7.05
2023-04-06T22:06:13.568Z,7.08
2023-04-06T22:08:41.264Z,7.12
2023-04-06T22:11:10.793Z,7.17
2023-04-06T22:13:38.640Z,7.23
2023-04-06T22:16:06.491Z,7.28
2023-04-06T22:18:38.088Z,7.32
2023-04-06T22:21:07.757Z,7.35
2023-04-06T22:23:35.722Z,7.39
2023-04-06T22:26:03.082Z,7.39
2023-04-06T22:28:30.842Z,7.39
2023-04-06T22:30:58.126Z,7.40
2023-04-06T22:33:26.064Z,7.40
2023-04-06T22:35:53.384Z,7.38
2023-04-06T22:38:20.458Z,7.38
2023-04-06T22:40:48.026Z,7.37
2023-04-06T22:43:15.273Z,7.34
2023-04-06T22:45:43.963Z,7.31
2023-04-06T22:48:11.237Z,7.32
2023-04-06T22:50:38.994Z,7.35
2023-04-06T22:53:06.776Z,7.34
2023-04-06T22:55:34.302Z,7.30
2023-04-06T22:58:01.864Z,7.30
2023-04-06T23:00:29.520Z,7.30
2023-04-06T23:03:16.731Z,7.32
2023-04-06T23:05:45.424Z,7.40
2023-04-06T23:08:13.291Z,7.51
2023-04-06T23:10:47.316Z,7.57
2023-04-06T23:13:15.167Z,7.61
2023-04-06T23:15:43.579Z,7.63
2023-04-06T23:18:12.640Z,7.67
2023-04-06T23:20:40.607Z,7.72
2023-04-06T23:23:08.272Z,7.76
2023-04-06T23:25:36.238Z,7.82
2023-04-06T23:28:04.222Z,7.86
2023-04-06T23:30:31.868Z,7.94
2023-04-06T23:33:00.738Z,8.00
2023-04-06T23:35:28.110Z,8.07
2023-04-06T23:37:55.670Z,8.08
2023-04-06T23:40:24.665Z,8.10
2023-04-06T23:42:52.380Z,8.11
2023-04-06T23:45:19.578Z,8.16
2023-04-06T23:47:47.084Z,8.20
2023-04-06T23:50:15.102Z,8.22
2023-04-06T23:52:42.355Z,8.26
2023-04-06T23:55:09.713Z,8.26
2023-04-06T23:57:37.104Z,8.26
